Time;durP1;ratioP1;P1;durP2;ratioP2;P2;SDS_P1;SDS_P2;PMS_P1;PMS_P2;Temp;Humidity;BMP_temperature;BMP_pressure;BME280_temperature;BME280_humidity;BME280_pressure;Samples;Min_cycle;Max_cycle;Signal;HPM_P1;HPM_P2
2021/06/09 00:00:57;;;;;;;3.08;2.40;;;22.60;64.40;;;;;;6104191;29;20414;-78
2021/06/09 00:03:58;;;;;;;4.53;3.10;;;22.60;64.60;;;;;;6103437;29;20075;-78
2021/06/09 00:06:59;;;;;;;3.40;2.40;;;22.50;64.70;;;;;;6104449;29;20454;-77
2021/06/09 00:10:00;;;;;;;4.13;2.90;;;22.50;65.00;;;;;;6104047;29;20446;-78
2021/06/09 00:13:01;;;;;;;5.57;3.10;;;22.40;64.90;;;;;;6119951;29;20040;-79
2021/06/09 00:16:07;;;;;;;8.05;2.92;;;22.40;64.90;;;;;;6103123;29;20119;-78
2021/06/09 00:19:08;;;;;;;6.28;3.17;;;22.30;65.00;;;;;;6096400;29;20106;-78
2021/06/09 00:22:09;;;;;;;4.85;2.67;;;22.30;65.00;;;;;;6104491;28;20039;-78
2021/06/09 00:25:17;;;;;;;4.40;2.38;;;22.20;65.00;;;;;;6103488;28;20044;-78
2021/06/09 00:28:18;;;;;;;;;;;22.20;65.00;;;;;;6103849;28;20115;-78
2021/06/09 00:31:19;;;;;;;3.72;2.20;;;22.20;65.00;;;;;;6103263;28;19927;-79
2021/06/09 00:34:20;;;;;;;6.65;3.60;;;22.10;64.70;;;;;;6088135;28;20118;-79
2021/06/09 00:37:21;;;;;;;5.07;2.88;;;22.00;65.00;;;;;;6092118;28;20028;-79
2021/06/09 00:40:23;;;;;;;4.43;2.85;;;22.00;65.20;;;;;;6107955;28;20366;-78
2021/06/09 00:43:32;;;;;;;8.70;2.67;;;22.00;65.30;;;;;;6108893;28;20474;-78
2021/06/09 00:46:38;;;;;;;4.65;2.40;;;21.90;65.30;;;;;;6107353;29;20378;-78
2021/06/09 00:49:39;;;;;;;3.22;2.35;;;21.90;65.30;;;;;;6108825;28;20605;-79
2021/06/09 00:52:40;;;;;;;4.35;2.58;;;21.90;65.20;;;;;;6108722;28;20102;-79
2021/06/09 00:55:42;;;;;;;5.15;2.78;;;21.90;65.30;;;;;;6108973;28;20051;-78
2021/06/09 00:58:45;;;;;;;5.07;2.70;;;21.80;65.20;;;;;;6106856;29;20044;-79
2021/06/09 01:01:48;;;;;;;6.85;2.55;;;21.80;65.20;;;;;;6107808;29;20059;-80
2021/06/09 01:04:48;;;;;;;6.38;2.47;;;21.80;65.10;;;;;;6108122;29;20141;-79
2021/06/09 01:07:49;;;;;;;11.75;2.92;;;21.80;65.00;;;;;;6124787;29;20343;-78
2021/06/09 01:10:52;;;;;;;4.25;2.78;;;21.80;64.90;;;;;;6123363;29;20123;-78
2021/06/09 01:13:53;;;;;;;7.93;3.03;;;21.80;65.00;;;;;;6098748;29;20347;-77
2021/06/09 01:16:54;;;;;;;5.82;2.53;;;21.90;65.00;;;;;;6068556;29;20120;-76
2021/06/09 01:19:57;;;;;;;6.45;2.78;;;21.80;64.90;;;;;;6091789;28;20032;-77
2021/06/09 01:22:57;;;;;;;5.38;2.75;;;21.80;65.00;;;;;;6130871;29;20373;-77
2021/06/09 01:25:59;;;;;;;4.85;2.35;;;21.80;65.10;;;;;;6131197;29;20051;-76
2021/06/09 01:29:00;;;;;;;6.85;2.67;;;21.70;65.20;;;;;;6105634;29;20358;-77
2021/06/09 01:32:02;;;;;;;3.85;2.75;;;21.70;65.30;;;;;;6099603;29;20040;-77
2021/06/09 01:35:05;;;;;;;3.95;2.42;;;21.70;65.40;;;;;;6090295;29;20051;-76
2021/06/09 01:38:07;;;;;;;4.50;2.95;;;21.70;65.50;;;;;;6102288;29;20413;-76
2021/06/09 01:41:08;;;;;;;6.43;2.78;;;21.70;65.40;;;;;;6118792;28;20047;-76
2021/06/09 01:44:10;;;;;;;6.15;2.85;;;21.70;65.40;;;;;;6106926;29;20052;-77
2021/06/09 01:47:11;;;;;;;9.13;3.15;;;21.70;65.30;;;;;;6089894;29;20032;-76
2021/06/09 01:50:13;;;;;;;5.70;3.00;;;21.70;65.30;;;;;;6108028;28;20091;-76
2021/06/09 01:53:15;;;;;;;5.60;2.40;;;21.70;65.30;;;;;;6106551;28;20183;-77
2021/06/09 01:56:16;;;;;;;8.07;3.00;;;21.70;65.50;;;;;;6106379;28;20036;-76
2021/06/09 01:59:20;;;;;;;3.63;2.47;;;21.70;65.40;;;;;;6089125;29;20051;-76
2021/06/09 02:02:21;;;;;;;3.42;2.72;;;21.70;65.30;;;;;;6107041;29;20036;-76
2021/06/09 02:05:22;;;;;;;10.32;3.38;;;21.70;65.30;;;;;;6105092;29;20417;-77
2021/06/09 02:08:23;;;;;;;4.82;2.90;;;21.70;65.30;;;;;;6106693;29;20541;-77
2021/06/09 02:11:24;;;;;;;6.40;2.95;;;21.60;65.40;;;;;;6105828;29;20079;-77
2021/06/09 02:14:25;;;;;;;4.43;2.97;;;21.60;65.50;;;;;;6103964;28;20462;-77
2021/06/09 02:17:27;;;;;;;7.90;2.90;;;21.60;65.50;;;;;;6109091;29;20370;-77
2021/06/09 02:20:28;;;;;;;3.65;2.40;;;21.50;66.30;;;;;;6107006;28;20032;-77
2021/06/09 02:23:35;;;;;;;3.72;2.63;;;21.50;65.50;;;;;;6106007;28;20044;-77
2021/06/09 02:26:38;;;;;;;3.67;2.70;;;21.40;65.50;;;;;;6105842;28;20056;-77
2021/06/09 02:29:39;;;;;;;4.65;2.83;;;21.40;65.50;;;;;;6089498;29;20044;-77
2021/06/09 02:32:45;;;;;;;4.13;2.85;;;21.40;65.80;;;;;;6121411;29;20055;-76
2021/06/09 02:35:47;;;;;;;7.00;2.67;;;21.40;66.40;;;;;;6121583;29;20119;-78
2021/06/09 02:38:49;;;;;;;4.72;2.72;;;21.40;65.60;;;;;;6121367;29;20066;-77
2021/06/09 02:41:50;;;;;;;6.07;2.88;;;21.40;65.50;;;;;;6106216;29;20043;-76
2021/06/09 02:44:51;;;;;;;4.72;3.20;;;21.40;65.40;;;;;;6104797;29;20040;-77
2021/06/09 02:47:58;;;;;;;5.85;2.92;;;21.40;65.40;;;;;;6089401;29;20126;-77
2021/06/09 02:51:03;;;;;;;4.80;3.00;;;21.40;65.40;;;;;;6104534;28;20044;-77
2021/06/09 02:54:18;;;;;;;4.13;2.88;;;21.50;65.40;;;;;;6104424;29;20091;-76
2021/06/09 02:57:30;;;;;;;3.92;2.72;;;21.50;65.30;;;;;;6088310;29;20443;-76
2021/06/09 03:00:48;;;;;;;5.03;3.08;;;21.60;65.20;;;;;;6121474;29;20492;-76
2021/06/09 03:04:01;;;;;;;6.50;2.90;;;21.60;65.00;;;;;;6107026;29;20039;-76
2021/06/09 03:07:23;;;;;;;4.18;2.80;;;21.60;64.90;;;;;;6093385;29;20059;-77
2021/06/09 03:10:39;;;;;;;10.20;3.13;;;21.60;64.80;;;;;;6093937;29;20443;-76
2021/06/09 03:14:01;;;;;;;5.05;2.78;;;21.60;64.80;;;;;;6074952;29;20041;-76
2021/06/09 03:17:09;;;;;;;7.53;3.50;;;21.60;64.60;;;;;;6077135;29;20460;-77
2021/06/09 03:20:41;;;;;;;4.85;2.60;;;21.60;64.60;;;;;;6087009;28;20330;-76
2021/06/09 03:24:03;;;;;;;4.57;2.65;;;21.50;64.70;;;;;;6076136;29;20033;-77
2021/06/09 03:27:21;;;;;;;6.45;3.03;;;21.50;64.70;;;;;;6076780;29;20037;-77
2021/06/09 03:30:26;;;;;;;3.60;2.83;;;21.40;64.60;;;;;;6094192;29;20173;-77
2021/06/09 03:33:33;;;;;;;5.45;3.03;;;21.40;64.70;;;;;;6100089;29;20377;-77
2021/06/09 03:36:39;;;;;;;6.50;3.20;;;21.40;64.80;;;;;;6115695;28;20042;-77
2021/06/09 03:39:43;;;;;;;5.88;3.13;;;21.30;64.80;;;;;;6084595;29;20028;-77
2021/06/09 03:42:58;;;;;;;5.25;3.22;;;21.30;64.90;;;;;;6084839;29;20123;-76
2021/06/09 03:46:00;;;;;;;6.32;3.28;;;21.30;65.00;;;;;;6099698;29;20044;-76
2021/06/09 03:49:02;;;;;;;7.28;3.20;;;21.30;65.00;;;;;;6100102;29;20047;-77
2021/06/09 03:52:03;;;;;;;5.95;3.05;;;21.30;65.00;;;;;;6085659;28;20175;-76
2021/06/09 03:55:08;;;;;;;5.28;2.80;;;21.30;64.90;;;;;;6098158;28;20454;-76
2021/06/09 03:58:13;;;;;;;4.93;3.10;;;21.30;64.80;;;;;;6116447;29;20051;-77
2021/06/09 04:01:15;;;;;;;5.45;3.13;;;21.30;64.80;;;;;;6100841;29;20458;-76
2021/06/09 04:04:20;;;;;;;7.00;2.85;;;21.20;64.70;;;;;;6101548;29;20041;-77
2021/06/09 04:07:27;;;;;;;3.95;2.70;;;21.30;64.90;;;;;;6117351;28;20104;-77
2021/06/09 04:10:30;;;;;;;9.73;2.90;;;21.20;65.00;;;;;;6103121;29;20427;-75
2021/06/09 04:13:33;;;;;;;7.95;3.13;;;21.20;64.80;;;;;;6107357;29;20044;-75
2021/06/09 04:16:36;;;;;;;6.63;3.15;;;21.20;64.80;;;;;;6121504;29;20048;-76
2021/06/09 04:19:41;;;;;;;5.38;2.80;;;21.20;64.90;;;;;;6106436;28;20044;-76
2021/06/09 04:22:42;;;;;;;4.47;2.85;;;21.30;65.00;;;;;;6105897;28;20056;-76
2021/06/09 04:25:44;;;;;;;4.70;2.67;;;21.30;64.70;;;;;;6105618;28;20094;-76
2021/06/09 04:28:45;;;;;;;4.78;2.65;;;21.30;64.60;;;;;;6105150;28;20103;-76
2021/06/09 04:31:47;;;;;;;12.73;3.33;;;21.30;64.50;;;;;;6106284;28;20097;-78
2021/06/09 04:34:57;;;;;;;10.88;3.33;;;21.30;64.30;;;;;;6105392;28;20103;-76
2021/06/09 04:37:58;;;;;;;5.07;2.92;;;21.30;64.30;;;;;;6104973;28;20040;-76
2021/06/09 04:40:59;;;;;;;6.35;3.05;;;21.30;64.30;;;;;;6105339;28;20052;-78
2021/06/09 04:44:00;;;;;;;6.00;2.85;;;21.30;64.40;;;;;;6105148;28;20042;-77
2021/06/09 04:47:02;;;;;;;6.45;3.33;;;21.30;64.40;;;;;;6105407;28;20103;-76
2021/06/09 04:50:03;;;;;;;6.20;2.85;;;21.30;64.40;;;;;;6106055;28;20024;-77
2021/06/09 04:53:11;;;;;;;7.38;2.90;;;21.30;64.30;;;;;;6105825;29;20036;-77
2021/06/09 04:56:12;;;;;;;7.13;3.33;;;21.40;64.20;;;;;;6087766;29;20145;-77
2021/06/09 04:59:12;;;;;;;8.82;3.25;;;21.40;64.10;;;;;;6069048;29;20040;-77
2021/06/09 05:02:15;;;;;;;10.32;3.17;;;21.40;64.10;;;;;;6105425;29;20043;-77
2021/06/09 05:05:15;;;;;;;8.07;3.20;;;21.40;64.20;;;;;;6120109;29;20047;-77
2021/06/09 05:08:17;;;;;;;19.33;5.82;;;21.30;64.20;;;;;;6121311;29;20123;-77
2021/06/09 05:11:23;;;;;;;8.43;4.90;;;21.30;64.40;;;;;;6104798;29;20059;-77
2021/06/09 05:14:33;;;;;;;7.55;4.00;;;21.30;64.70;;;;;;6081124;29;20028;-77
2021/06/09 05:17:44;;;;;;;8.93;3.47;;;21.30;64.80;;;;;;6065432;29;20112;-76
2021/06/09 05:20:47;;;;;;;7.35;3.88;;;21.30;64.70;;;;;;6095719;28;20092;-77
2021/06/09 05:23:52;;;;;;;7.20;3.90;;;21.30;64.80;;;;;;6104580;29;20028;-77
2021/06/09 05:26:54;;;;;;;8.77;3.95;;;21.30;64.90;;;;;;6104816;29;20040;-77
2021/06/09 05:29:56;;;;;;;6.97;4.43;;;21.30;65.00;;;;;;6103778;29;20071;-77
2021/06/09 05:32:58;;;;;;;5.95;3.83;;;21.40;65.10;;;;;;6103976;29;20036;-77
2021/06/09 05:35:59;;;;;;;8.23;3.90;;;21.40;65.00;;;;;;6103087;29;20109;-77
2021/06/09 05:39:01;;;;;;;5.00;3.28;;;21.40;64.80;;;;;;6105096;29;20032;-76
2021/06/09 05:42:02;;;;;;;27.30;4.80;;;21.40;65.50;;;;;;6097782;29;20043;-77
2021/06/09 05:45:05;;;;;;;8.57;3.58;;;21.40;64.60;;;;;;6103022;29;20048;-76
2021/06/09 05:48:06;;;;;;;10.10;3.42;;;21.50;64.70;;;;;;6089771;29;20048;-76
2021/06/09 05:51:09;;;;;;;5.50;3.35;;;21.50;64.50;;;;;;6101577;29;20129;-77
2021/06/09 05:54:10;;;;;;;38.22;3.83;;;21.60;64.40;;;;;;6113512;28;20040;-76
2021/06/09 05:57:11;;;;;;;8.93;3.65;;;21.70;64.10;;;;;;6093803;29;20427;-78
2021/06/09 06:00:14;;;;;;;9.70;3.88;;;21.80;63.90;;;;;;6103147;29;20055;-77
2021/06/09 06:03:16;;;;;;;13.10;3.65;;;21.90;63.50;;;;;;6089140;29;20036;-79
2021/06/09 06:06:18;;;;;;;22.95;4.22;;;22.10;63.10;;;;;;6087614;29;20051;-78
2021/06/09 06:09:19;;;;;;;10.65;3.67;;;22.20;62.70;;;;;;6102265;28;20035;-77
2021/06/09 06:12:25;;;;;;;5.82;3.25;;;22.30;62.20;;;;;;6104165;29;20036;-78
2021/06/09 06:15:27;;;;;;;6.50;3.53;;;22.40;61.80;;;;;;6104658;29;20032;-79
2021/06/09 06:18:37;;;;;;;9.85;3.45;;;22.40;61.40;;;;;;6087445;29;20044;-79
2021/06/09 06:21:38;;;;;;;6.95;3.28;;;22.50;61.20;;;;;;6102476;28;20131;-81
2021/06/09 06:24:41;;;;;;;8.10;4.05;;;22.60;60.90;;;;;;6094657;28;20371;-78
2021/06/09 06:27:53;;;;;;;7.95;4.15;;;22.70;60.70;;;;;;6110257;28;20062;-78
2021/06/09 06:30:55;;;;;;;27.10;3.85;;;22.80;60.40;;;;;;6103000;29;20041;-77
2021/06/09 06:33:59;;;;;;;10.27;4.15;;;22.90;60.00;;;;;;6103456;29;20061;-77
2021/06/09 06:37:04;;;;;;;7.80;4.20;;;23.00;59.80;;;;;;6090511;29;20403;-78
2021/06/09 06:40:06;;;;;;;8.07;3.88;;;23.10;59.60;;;;;;6103025;29;20063;-78
2021/06/09 06:43:11;;;;;;;28.77;4.53;;;23.30;59.40;;;;;;6077000;29;20067;-78
2021/06/09 06:46:15;;;;;;;11.85;4.50;;;23.40;59.10;;;;;;6083953;29;20037;-79
2021/06/09 06:49:19;;;;;;;9.35;4.70;;;23.60;58.90;;;;;;6099757;29;20069;-78
2021/06/09 06:52:21;;;;;;;9.93;5.05;;;23.80;58.60;;;;;;6113598;28;20104;-78
2021/06/09 06:55:23;;;;;;;6.82;4.50;;;24.10;58.20;;;;;;6094954;29;20514;-78
2021/06/09 06:58:25;;;;;;;19.45;5.07;;;24.20;57.80;;;;;;6080329;29;20061;-78
2021/06/09 07:01:34;;;;;;;9.48;5.03;;;24.30;57.60;;;;;;6102406;29;20107;-77
2021/06/09 07:04:38;;;;;;;9.40;5.00;;;24.40;57.40;;;;;;6077182;29;20040;-78
2021/06/09 07:07:44;;;;;;;11.07;5.70;;;24.40;57.20;;;;;;6101676;29;20084;-78
2021/06/09 07:10:46;;;;;;;13.18;6.38;;;24.50;57.10;;;;;;6100702;29;20039;-78
2021/06/09 07:13:49;;;;;;;8.57;4.55;;;24.60;56.80;;;;;;6087150;29;20362;-78
2021/06/09 07:16:54;;;;;;;10.43;4.65;;;24.70;56.70;;;;;;6106947;28;20146;-78
2021/06/09 07:19:55;;;;;;;7.40;4.82;;;24.70;56.50;;;;;;6102488;28;20051;-78
2021/06/09 07:22:58;;;;;;;9.45;5.30;;;24.80;56.20;;;;;;6101982;28;20414;-78
2021/06/09 07:26:05;;;;;;;9.80;5.15;;;24.90;56.00;;;;;;6099739;28;20040;-78
2021/06/09 07:29:09;;;;;;;9.27;5.30;;;24.90;56.50;;;;;;6082091;29;20470;-78
2021/06/09 07:32:11;;;;;;;11.05;5.65;;;25.00;55.60;;;;;;6082567;29;20459;-78
2021/06/09 07:35:14;;;;;;;13.15;4.68;;;25.00;55.50;;;;;;6092466;29;20043;-78
2021/06/09 07:38:22;;;;;;;24.67;5.75;;;25.10;55.50;;;;;;6079981;29;20032;-78
2021/06/09 07:41:27;;;;;;;12.70;5.72;;;25.10;55.40;;;;;;6052046;29;20097;-78
2021/06/09 07:44:34;;;;;;;21.98;5.63;;;25.20;55.30;;;;;;6086223;28;20098;-78
2021/06/09 07:47:36;;;;;;;34.53;6.70;;;25.30;55.00;;;;;;6089442;29;20119;-77
2021/06/09 07:50:48;;;;;;;6.70;4.90;;;25.30;54.90;;;;;;6095633;29;20040;-78
2021/06/09 07:53:53;;;;;;;10.43;5.18;;;25.30;54.70;;;;;;6100790;29;20036;-78
2021/06/09 07:56:56;;;;;;;16.95;5.45;;;25.40;54.60;;;;;;6094697;29;20033;-77
2021/06/09 07:59:58;;;;;;;9.90;5.30;;;25.40;54.60;;;;;;6105217;28;20115;-77
2021/06/09 08:03:02;;;;;;;22.13;6.53;;;25.40;54.50;;;;;;6107475;29;20033;-79
2021/06/09 08:06:05;;;;;;;15.95;5.93;;;25.40;54.50;;;;;;6093336;29;20120;-78
2021/06/09 08:09:06;;;;;;;11.75;5.38;;;25.50;54.40;;;;;;6077010;29;20135;-78
2021/06/09 08:12:08;;;;;;;14.90;7.88;;;25.60;54.20;;;;;;6077915;29;20354;-78
2021/06/09 08:15:12;;;;;;;10.02;5.97;;;25.70;54.00;;;;;;6093373;29;20473;-78
2021/06/09 08:18:14;;;;;;;19.38;5.97;;;25.70;53.80;;;;;;6094374;29;20461;-78
2021/06/09 08:21:16;;;;;;;7.68;4.70;;;25.80;53.60;;;;;;6066907;29;20447;-78
2021/06/09 08:24:17;;;;;;;8.57;4.82;;;25.90;53.30;;;;;;6094466;29;20048;-78
2021/06/09 08:27:18;;;;;;;8.93;5.05;;;26.10;53.00;;;;;;6097953;29;20036;-78
2021/06/09 08:30:22;;;;;;;10.98;5.80;;;26.10;52.80;;;;;;6078988;29;20466;-78
2021/06/09 08:33:23;;;;;;;8.05;4.45;;;26.40;52.50;;;;;;6096847;29;20401;-78
2021/06/09 08:36:25;;;;;;;13.50;5.10;;;26.50;52.00;;;;;;6083139;29;20024;-78
2021/06/09 08:39:28;;;;;;;7.28;4.25;;;26.60;51.70;;;;;;6099532;29;20400;-78
2021/06/09 08:42:33;;;;;;;9.13;4.22;;;26.80;51.50;;;;;;6092723;29;20343;-77
2021/06/09 08:45:34;;;;;;;9.05;4.38;;;26.90;51.90;;;;;;6095619;29;20463;-78
2021/06/09 08:48:38;;;;;;;7.93;4.68;;;27.00;50.80;;;;;;6078619;29;20041;-78
2021/06/09 08:51:39;;;;;;;9.90;4.53;;;27.10;50.60;;;;;;6087621;28;20115;-78
2021/06/09 08:54:47;;;;;;;11.82;4.93;;;27.10;50.60;;;;;;6086562;29;20524;-79
2021/06/09 08:57:49;;;;;;;12.38;4.05;;;27.20;50.50;;;;;;6069926;29;20051;-78
2021/06/09 09:00:50;;;;;;;7.97;4.88;;;27.30;50.30;;;;;;6098801;29;20040;-79
2021/06/09 09:03:51;;;;;;;23.55;4.90;;;27.40;50.10;;;;;;6118115;29;20051;-79
2021/06/09 09:06:54;;;;;;;10.57;4.22;;;27.30;49.90;;;;;;6119834;29;20028;-78
2021/06/09 09:09:58;;;;;;;18.77;5.35;;;27.40;49.80;;;;;;6080332;29;20473;-78
2021/06/09 09:12:59;;;;;;;10.75;4.00;;;27.30;49.60;;;;;;6099090;28;20470;-78
2021/06/09 09:16:00;;;;;;;7.65;4.20;;;27.40;49.60;;;;;;6113106;29;20056;-78
2021/06/09 09:19:02;;;;;;;6.00;4.18;;;27.30;49.40;;;;;;6082190;29;20092;-79
2021/06/09 09:22:04;;;;;;;8.32;4.10;;;27.40;49.30;;;;;;6106159;28;20028;-79
2021/06/09 09:25:17;;;;;;;7.78;3.72;;;27.40;49.30;;;;;;6100478;29;20566;-79
2021/06/09 09:28:30;;;;;;;6.35;4.28;;;27.50;49.10;;;;;;6087495;29;20033;-78
2021/06/09 09:31:46;;;;;;;11.57;4.63;;;27.40;49.20;;;;;;6109636;28;20139;-78
2021/06/09 09:34:47;;;;;;;7.15;3.45;;;27.30;49.40;;;;;;6104480;28;20043;-78
2021/06/09 09:37:51;;;;;;;6.57;3.90;;;27.30;49.50;;;;;;6072835;29;20077;-78
2021/06/09 09:41:06;;;;;;;6.50;3.80;;;27.40;49.40;;;;;;6058992;28;20032;-79
2021/06/09 09:44:08;;;;;;;5.05;3.63;;;27.50;49.10;;;;;;6099535;28;20055;-78
2021/06/09 09:51:10;;;;;;;9.07;3.83;;;27.50;48.80;;;;;;6011456;29;20092;-79
2021/06/09 09:54:21;;;;;;;6.55;3.35;;;27.60;48.50;;;;;;6056281;29;20146;-79
2021/06/09 09:57:22;;;;;;;5.70;3.78;;;27.60;48.50;;;;;;6062029;29;20033;-78
2021/06/09 10:00:33;;;;;;;12.88;5.38;;;27.70;48.40;;;;;;6043440;29;20105;-78
2021/06/09 10:03:37;;;;;;;11.70;3.60;;;27.70;48.80;;;;;;6044209;29;20089;-80
2021/06/09 10:06:50;;;;;;;5.30;3.67;;;27.60;48.20;;;;;;6058033;29;20072;-81
2021/06/09 10:09:59;;;;;;;5.15;3.83;;;27.50;48.20;;;;;;6058660;29;20141;-79
2021/06/09 10:13:16;;;;;;;14.48;7.57;;;27.40;48.40;;;;;;6052221;29;20360;-79
2021/06/09 10:16:32;;;;;;;7.55;4.85;;;27.30;48.50;;;;;;6038263;29;20045;-79
2021/06/09 10:19:56;;;;;;;6.13;3.47;;;27.30;48.60;;;;;;6048006;29;20130;-79
2021/06/09 10:22:59;;;;;;;9.50;4.72;;;27.30;48.60;;;;;;6104220;28;20036;-80
2021/06/09 10:26:09;;;;;;;7.05;3.95;;;27.30;48.50;;;;;;6094677;29;20044;-79
2021/06/09 10:29:18;;;;;;;4.63;3.33;;;27.30;48.60;;;;;;6079182;28;20036;-79
2021/06/09 10:32:19;;;;;;;6.10;3.53;;;27.40;48.30;;;;;;6094243;28;20044;-79
2021/06/09 10:35:22;;;;;;;4.63;3.33;;;27.40;48.20;;;;;;6093237;29;20418;-79
2021/06/09 10:38:23;;;;;;;4.00;3.05;;;27.50;47.90;;;;;;6100043;29;20077;-80
2021/06/09 10:41:25;;;;;;;5.25;3.50;;;27.60;47.70;;;;;;6117023;29;20040;-78
2021/06/09 10:44:34;;;;;;;4.38;3.08;;;27.70;47.50;;;;;;6101370;29;20055;-80
2021/06/09 10:47:37;;;;;;;6.60;3.13;;;27.70;47.10;;;;;;6100550;29;20032;-78
2021/06/09 10:50:40;;;;;;;4.10;3.10;;;27.80;46.90;;;;;;6084475;28;20052;-79
2021/06/09 10:53:45;;;;;;;6.05;3.42;;;27.90;46.90;;;;;;6084874;29;20175;-79
2021/06/09 10:56:48;;;;;;;9.48;4.05;;;27.90;46.90;;;;;;6099747;29;20028;-80
2021/06/09 10:59:49;;;;;;;7.00;3.20;;;28.00;46.90;;;;;;6080293;28;20092;-80
2021/06/09 11:02:55;;;;;;;6.55;3.72;;;28.10;46.70;;;;;;6112614;28;20031;-81
2021/06/09 11:06:00;;;;;;;8.52;3.67;;;28.50;46.40;;;;;;6104157;29;20394;-81
2021/06/09 11:09:27;;;;;;;5.35;3.35;;;29.80;43.70;;;;;;6083327;29;20422;-81
2021/06/09 11:12:29;;;;;;;4.93;3.38;;;31.10;41.30;;;;;;6071001;29;20043;-80
2021/06/09 11:15:34;;;;;;;5.10;3.03;;;32.00;39.70;;;;;;6087378;29;20041;-80
2021/06/09 11:18:40;;;;;;;5.03;3.75;;;32.80;38.20;;;;;;6099917;29;20033;-80
2021/06/09 11:21:41;;;;;;;5.28;3.03;;;33.50;37.20;;;;;;6103345;28;20039;-80
2021/06/09 11:25:15;;;;;;;4.15;3.10;;;33.90;36.10;;;;;;6075788;29;20052;-79
2021/06/09 11:28:17;;;;;;;4.07;3.22;;;34.30;35.50;;;;;;6075218;29;20347;-81
2021/06/09 11:31:27;;;;;;;4.55;2.92;;;34.70;34.50;;;;;;6090871;28;20047;-79
2021/06/09 11:34:56;;;;;;;9.23;2.83;;;35.00;34.00;;;;;;6075576;29;20202;-79
2021/06/09 11:38:12;;;;;;;3.60;3.00;;;35.30;33.50;;;;;;6058046;29;20036;-79
2021/06/09 11:41:19;;;;;;;3.60;2.65;;;35.70;32.50;;;;;;6076457;29;20299;-80
2021/06/09 11:44:37;;;;;;;3.17;2.70;;;35.90;31.60;;;;;;6073832;29;20043;-81
2021/06/09 11:47:38;;;;;;;;;;;35.90;31.40;;;;;;6099970;29;20405;-79
2021/06/09 11:50:42;;;;;;;4.65;2.78;;;36.10;31.60;;;;;;6113788;28;19942;-78
2021/06/09 11:53:47;;;;;;;6.80;3.20;;;36.30;31.50;;;;;;6101977;29;20098;-79
2021/06/09 11:56:55;;;;;;;28.58;3.08;;;36.50;30.90;;;;;;6057487;29;20044;-79
2021/06/09 12:00:08;;;;;;;7.05;2.75;;;36.50;30.90;;;;;;6059065;29;20037;-80
2021/06/09 12:03:22;;;;;;;7.70;3.33;;;36.80;30.70;;;;;;6045298;29;20032;-78
2021/06/09 12:06:23;;;;;;;6.60;3.40;;;36.70;30.50;;;;;;6098264;29;20466;-78
2021/06/09 12:09:26;;;;;;;4.80;3.00;;;36.80;30.20;;;;;;6084039;29;20048;-78
2021/06/09 12:12:34;;;;;;;4.88;3.22;;;36.90;30.30;;;;;;6083658;28;20043;-80
2021/06/09 12:15:35;;;;;;;;;;;37.20;30.20;;;;;;6083869;29;20051;-79
2021/06/09 12:18:36;;;;;;;3.60;2.95;;;37.50;29.80;;;;;;6106491;29;19931;-79
2021/06/09 12:21:43;;;;;;;3.65;2.67;;;37.80;29.30;;;;;;6097167;28;20044;-79
2021/06/09 12:24:59;;;;;;;3.28;2.55;;;37.60;28.70;;;;;;6080563;29;20104;-80
2021/06/09 12:28:10;;;;;;;3.90;2.85;;;37.30;28.90;;;;;;6083684;29;20032;-79
2021/06/09 12:31:11;;;;;;;7.63;2.65;;;37.20;29.00;;;;;;6089925;29;20051;-79
2021/06/09 12:34:29;;;;;;;7.53;2.70;;;37.20;29.00;;;;;;6078207;29;20040;-79
2021/06/09 12:37:33;;;;;;;6.13;3.10;;;37.20;29.00;;;;;;6106497;29;20597;-79
2021/06/09 12:40:37;;;;;;;7.57;2.85;;;37.40;29.00;;;;;;6084692;28;20028;-79
2021/06/09 12:43:41;;;;;;;3.83;2.67;;;37.40;29.10;;;;;;6076120;29;20481;-79
2021/06/09 12:47:08;;;;;;;5.75;2.60;;;37.50;28.90;;;;;;6072873;29;20055;-80
2021/06/09 12:50:27;;;;;;;3.92;3.00;;;37.60;28.40;;;;;;6075453;28;20032;-81
2021/06/09 12:53:30;;;;;;;6.47;2.53;;;37.50;28.10;;;;;;6074575;28;20059;-80
2021/06/09 12:56:32;;;;;;;8.23;3.45;;;37.70;27.90;;;;;;6099699;29;20515;-80
2021/06/09 12:59:38;;;;;;;3.65;2.20;;;38.00;27.50;;;;;;6092087;29;20076;-79
2021/06/09 13:02:40;;;;;;;3.50;2.97;;;38.40;27.20;;;;;;6063255;29;20044;-81
2021/06/09 13:06:11;;;;;;;4.03;2.85;;;38.70;26.80;;;;;;6052631;28;20047;-79
2021/06/09 13:09:20;;;;;;;4.38;2.00;;;39.20;26.70;;;;;;6039072;29;20041;-79
2021/06/09 13:12:31;;;;;;;2.55;1.80;;;39.70;25.60;;;;;;6053115;29;20041;-83
2021/06/09 13:15:34;;;;;;;4.47;2.22;;;40.00;24.90;;;;;;6055853;29;20521;-79
2021/06/09 13:19:06;;;;;;;7.72;2.47;;;40.10;24.50;;;;;;6059507;29;20344;-80
2021/06/09 13:22:09;;;;;;;5.05;3.10;;;40.70;24.20;;;;;;6036672;29;20034;-82
2021/06/09 13:25:15;;;;;;;7.72;2.75;;;41.40;23.70;;;;;;6033288;29;20044;-80
2021/06/09 13:28:37;;;;;;;6.78;2.15;;;42.10;23.10;;;;;;6053017;29;20025;-80
2021/06/09 13:31:53;;;;;;;5.63;2.10;;;42.70;22.80;;;;;;6051379;29;20060;-81
2021/06/09 13:35:29;;;;;;;2.08;1.70;;;42.90;22.50;;;;;;6046279;29;20033;-79
2021/06/09 13:38:44;;;;;;;2.28;1.80;;;43.20;22.20;;;;;;6060264;29;20056;-80
2021/06/09 13:41:52;;;;;;;2.70;1.92;;;43.50;22.40;;;;;;6103637;29;20055;-81
2021/06/09 13:44:53;;;;;;;4.25;1.92;;;43.50;21.60;;;;;;6088835;29;20300;-82
2021/06/09 13:48:17;;;;;;;2.53;2.33;;;43.60;21.50;;;;;;6083374;29;20108;-81
2021/06/09 13:51:20;;;;;;;2.15;1.92;;;43.70;21.50;;;;;;6086468;29;20085;-81
2021/06/09 13:54:32;;;;;;;2.30;1.88;;;44.00;21.10;;;;;;6117585;29;20032;-80
2021/06/09 14:03:08;;;;;;;;;;;;;;;;;;;;;
2021/06/09 14:06:36;;;;;;;2.13;1.93;;;44.00;21.10;;;;;;5959487;29;20043;-80
2021/06/09 14:11:02;;;;;;;2.30;1.90;;;44.90;20.80;;;;;;5830494;29;20078;-80
2021/06/09 14:14:36;;;;;;;5.60;2.30;;;45.60;20.30;;;;;;5884921;29;20046;-80
2021/06/09 14:17:37;;;;;;;3.05;1.80;;;45.60;20.10;;;;;;5904693;29;20023;-80
2021/06/09 14:21:25;;;;;;;3.47;1.70;;;45.50;20.00;;;;;;5935297;29;20135;-81
2021/06/09 14:24:41;;;;;;;2.20;1.90;;;45.20;20.00;;;;;;5959927;29;20038;-80
2021/06/09 14:28:25;;;;;;;2.20;1.75;;;44.50;20.80;;;;;;5908581;29;20368;-78
2021/06/09 14:31:47;;;;;;;4.78;2.15;;;43.30;21.40;;;;;;5927542;29;20100;-79
2021/06/09 14:34:48;;;;;;;2.30;2.10;;;42.20;22.40;;;;;;5943918;29;20069;-82
2021/06/09 14:37:51;;;;;;;2.55;2.20;;;41.60;22.90;;;;;;5960636;29;20042;-83
2021/06/09 14:41:11;;;;;;;5.43;2.20;;;41.00;23.20;;;;;;5986681;29;20045;-81
2021/06/09 14:44:30;;;;;;;3.15;2.00;;;40.80;23.60;;;;;;6048979;29;20033;-83
2021/06/09 14:48:14;;;;;;;2.30;2.10;;;40.60;23.40;;;;;;6050052;29;20033;-82
2021/06/09 14:51:31;;;;;;;3.25;2.38;;;40.40;23.40;;;;;;6099066;28;20039;-83
2021/06/09 14:55:21;;;;;;;3.92;2.25;;;39.00;24.60;;;;;;6083492;29;20033;-82
2021/06/09 14:58:30;;;;;;;3.45;2.17;;;37.60;25.80;;;;;;6089815;29;20172;-82
2021/06/09 15:01:47;;;;;;;2.30;2.10;;;36.70;26.60;;;;;;6085668;29;20104;-84
2021/06/09 15:04:58;;;;;;;2.83;2.38;;;36.60;26.70;;;;;;6147796;28;20046;-81
2021/06/09 15:08:03;;;;;;;5.45;2.55;;;37.50;26.10;;;;;;6126298;28;20086;-83
2021/06/09 15:11:16;;;;;;;3.10;2.08;;;38.30;25.60;;;;;;6139738;28;20035;-83
2021/06/09 15:14:20;;;;;;;4.00;2.38;;;38.90;25.20;;;;;;6138354;28;20035;-83
2021/06/09 15:17:24;;;;;;;2.55;2.10;;;39.30;25.00;;;;;;6137946;28;20035;-82
2021/06/09 15:20:26;;;;;;;5.57;4.88;;;39.70;24.60;;;;;;6114932;28;20028;-83
2021/06/09 15:23:28;;;;;;;4.45;2.50;;;40.20;23.90;;;;;;6117355;29;20071;-83
2021/06/09 15:26:30;;;;;;;3.13;2.13;;;40.60;24.00;;;;;;6120169;28;20064;-83
2021/06/09 15:29:46;;;;;;;3.08;1.95;;;40.90;23.20;;;;;;6139622;28;20094;-82
2021/06/09 15:32:53;;;;;;;3.10;1.95;;;41.20;22.70;;;;;;6141129;28;20050;-82
2021/06/09 15:36:09;;;;;;;2.60;2.08;;;41.10;22.50;;;;;;6137192;29;20166;-82
2021/06/09 15:39:37;;;;;;;3.08;2.08;;;40.70;22.80;;;;;;6149021;28;20043;-81
2021/06/09 15:42:48;;;;;;;2.47;1.90;;;40.20;23.10;;;;;;6095925;28;20122;-81
2021/06/09 15:45:54;;;;;;;4.55;2.00;;;39.70;23.40;;;;;;6132535;28;20052;-83
2021/06/09 15:48:59;;;;;;;2.25;2.05;;;39.40;23.80;;;;;;6127495;28;20461;-80
2021/06/09 15:52:12;;;;;;;2.73;1.90;;;39.30;23.90;;;;;;6104747;28;20136;-83
2021/06/09 15:55:21;;;;;;;3.20;1.95;;;39.60;23.90;;;;;;6103966;28;20459;-83
2021/06/09 15:58:22;;;;;;;8.32;1.92;;;39.80;23.70;;;;;;6111256;28;20036;-82
2021/06/09 16:01:30;;;;;;;2.00;1.80;;;40.20;23.60;;;;;;6100700;28;20469;-82
2021/06/09 16:04:33;;;;;;;4.97;2.00;;;40.70;23.40;;;;;;6122624;28;20056;-83
2021/06/09 16:07:38;;;;;;;1.98;1.88;;;40.30;23.70;;;;;;6114829;29;20040;-82
2021/06/09 16:10:39;;;;;;;2.95;2.10;;;39.50;24.50;;;;;;6094623;29;20052;-83
2021/06/09 16:13:44;;;;;;;2.10;1.58;;;38.60;25.60;;;;;;6131751;29;20040;-81
2021/06/09 16:16:45;;;;;;;2.85;1.98;;;38.00;26.40;;;;;;6109298;28;20060;-83
2021/06/09 16:19:53;;;;;;;2.00;1.80;;;37.60;26.80;;;;;;6109033;28;20036;-82
2021/06/09 16:22:58;;;;;;;;;;;37.20;27.00;;;;;;6106148;28;20055;-83